This is the latest recevied weather packets stored in our database for station/object K6TTR. If no packets are shown the sender has not sent any weather packets the latest 10 day(s).
| Time | Temp. | Humidity | Pressure | Rain* | Wind** | Luminosity | Snow |
|---|---|---|---|---|---|---|---|
| 1777413519 | 15° C | 34% | 1019.2 hPa | 0 mm | - | 220 W/m² | - |
| 1777411726 | 13.89° C | 39% | 1019.4 hPa | 0 mm | - | 918 W/m² | - |
| 1777410527 | 12.78° C | 41% | 1019.6 hPa | 0 mm | - | 313 W/m² | - |
| 1777410212 | 13.33° C | 41% | 1019.6 hPa | 0 mm | - | 350 W/m² | - |
| 1777409326 | 13.33° C | 40% | 1019.7 hPa | 0 mm | - | 279 W/m² | - |
| 1777407815 | 13.33° C | 40% | 1019.9 hPa | 0 mm | - | 1007 W/m² | - |
| 1777405430 | 13.33° C | 44% | 1020 hPa | 0 mm | - | 1046 W/m² | - |
| 1777404818 | 12.78° C | 48% | 1020.1 hPa | 0 mm | - | 782 W/m² | - |
| 1777404230 | 11.67° C | 50% | 1020.2 hPa | 0 mm | - | 406 W/m² | - |
| 1777403915 | 11.67° C | 50% | 1020.3 hPa | 0 mm | - | 545 W/m² | - |
| 1777399126 | 11.11° C | 49% | 1020 hPa | 0 mm | - | 888 W/m² | - |
| 1777398222 | 10.56° C | 53% | 1020.1 hPa | 0 mm | - | 434 W/m² | - |
| 1777396711 | 10° C | 57% | 1020.2 hPa | 0 mm | - | 128 W/m² | - |
| 1777393716 | 8.33° C | 70% | 1020.3 hPa | 0 mm | - | 62 W/m² | - |
| 1777391918 | 6.67° C | 76% | 1020.6 hPa | 0 mm | - | 255 W/m² | - |
| 1777388917 | 3.33° C | 92% | 1020.6 hPa | 0 mm | - | 42 W/m² | - |
| 1777387110 | 1.11° C | 92% | 1020.1 hPa | 0 mm | - | 39 W/m² | - |
| 1777386816 | 1.11° C | 92% | 1020.2 hPa | 0 mm | - | 33 W/m² | - |
| 1777386502 | 1.11° C | 92% | 1020.1 hPa | 0 mm | - | 33 W/m² | - |
| 1777385923 | 0.56° C | 92% | 1020 hPa | 0 mm | - | 28 W/m² | - |
| 1777385330 | 0° C | 92% | 1019.8 hPa | 0 mm | - | 26 W/m² | - |
| 1777385024 | 0° C | 92% | 1019.8 hPa | 0 mm | - | 58 W/m² | - |
| 1777384733 | 0° C | 91% | 1019.8 hPa | 0 mm | - | 21 W/m² | - |
| 1777383530 | -0.56° C | 91% | 1019.5 hPa | 0 mm | - | 14 W/m² | - |
| 1777382915 | -0.56° C | 91% | 1019.4 hPa | 0 mm | - | 11 W/m² | - |
* Rain latest hour (hover to see other rain measurements)
** Current wind speed in m/s (hover to see current wind gust speed)